F/V Lycia — FO3848 — position and weather

sailwx.info

Track history (hours):
 
Tides and Currents Weather Stations Pressure Air Temp Water Temp Dewpoint Dewpoint Depression Visibility Wind Speed Wind Dir Waves Ship Positions

F/V Lycia

Last reported at 2017-Sep-19 23:48 UTC. Time now 2017-Sep-20 02:00 UTC.
Position N 47°46' W 004°44'.

Length 10 m.

Type: Fishing. MMSI: 228208800.

Date/timePositionNaut miles runAvg speedWind from/ knotsBaromVisibWave heightAir tempDewpointWater temp
2017-Sep-19 23:48N 47°46' W 004°44'1 1.6
2017-Sep-19 23:25N 47°46' W 004°43'0 0.6
2017-Sep-19 22:50N 47°46' W 004°43'12 3.9
2017-Sep-19 19:37N 47°58' W 004°37'1 8.9
2017-Sep-19 19:30N 47°57' W 004°36'5 8.9
2017-Sep-19 18:55N 47°53' W 004°32'7 2.4
2017-Sep-19 15:58N 47°49' W 004°23'2 0.1
2017-Sep-18 22:53N 47°47' W 004°23'7 3.4
2017-Sep-18 20:43N 47°46' W 004°12'0 0.4
2017-Sep-18 19:58N 47°46' W 004°12'6 5.7
2017-Sep-18 18:53N 47°46' W 004°21'7 0.3
2017-Sep-17 21:33N 47°53' W 004°25'0 0.1
2017-Sep-17 20:54N 47°53' W 004°25'0 0.2
2017-Sep-17 20:29N 47°53' W 004°25'1 1.5
2017-Sep-17 19:49N 47°54' W 004°25'0 0.1
2017-Sep-17 19:30N 47°54' W 004°25'0 0.7
2017-Sep-17 19:00N 47°54' W 004°24'  
2017-Sep-14 20:58N 47°55' W 004°25'0 0.3
2017-Sep-14 19:54N 47°54' W 004°25'4 4.1
2017-Sep-14 18:58N 47°51' W 004°27'  
Track history (hours):
 
Tides and Currents Weather Stations Pressure Air Temp Water Temp Dewpoint Dewpoint Depression Visibility Wind Speed Wind Dir Waves Ship Positions

F/V Lycia

Last reported at 2017-Sep-19 23:48 UTC. Time now 2017-Sep-20 02:00 UTC.
Position N 47°46' W 004°44'.

Length 10 m.

Type: Fishing. MMSI: 228208800.

Date/timePositionNaut miles runAvg speedWind from/ knotsBaromVisibWave heightAir tempDewpointWater temp
2017-Sep-19 23:48N 47°46' W 004°44'1 1.6
2017-Sep-19 23:25N 47°46' W 004°43'0 0.6
2017-Sep-19 22:50N 47°46' W 004°43'12 3.9
2017-Sep-19 19:37N 47°58' W 004°37'1 8.9
2017-Sep-19 19:30N 47°57' W 004°36'5 8.9
2017-Sep-19 18:55N 47°53' W 004°32'7 2.4
2017-Sep-19 15:58N 47°49' W 004°23'2 0.1
2017-Sep-18 22:53N 47°47' W 004°23'7 3.4
2017-Sep-18 20:43N 47°46' W 004°12'0 0.4
2017-Sep-18 19:58N 47°46' W 004°12'6 5.7
2017-Sep-18 18:53N 47°46' W 004°21'7 0.3
2017-Sep-17 21:33N 47°53' W 004°25'0 0.1
2017-Sep-17 20:54N 47°53' W 004°25'0 0.2
2017-Sep-17 20:29N 47°53' W 004°25'1 1.5
2017-Sep-17 19:49N 47°54' W 004°25'0 0.1
2017-Sep-17 19:30N 47°54' W 004°25'0 0.7
2017-Sep-17 19:00N 47°54' W 004°24'  
2017-Sep-14 20:58N 47°55' W 004°25'0 0.3
2017-Sep-14 19:54N 47°54' W 004°25'4 4.1
2017-Sep-14 18:58N 47°51' W 004°27'  

Dump ship's entire track history